Time;durP1;ratioP1;P1;durP2;ratioP2;P2;SDS_P1;SDS_P2;PMS_P1;PMS_P2;Temp;Humidity;BMP_temperature;BMP_pressure;BME280_temperature;BME280_humidity;BME280_pressure;Samples;Min_cycle;Max_cycle;Signal;HPM_P1;HPM_P2
2021/12/08 00:00:43;;;;;;;11.38;3.85;;;3.00;99.90;;;;;;5070142;28;20512;-80
2021/12/08 00:03:11;;;;;;;7.03;3.70;;;2.90;99.90;;;;;;5069979;28;20553;-81
2021/12/08 00:05:39;;;;;;;11.30;3.72;;;2.90;99.90;;;;;;5067837;28;20111;-81
2021/12/08 00:08:06;;;;;;;7.90;3.08;;;3.40;99.90;;;;;;5069910;28;20124;-82
2021/12/08 00:15:28;;;;;;;11.68;3.95;;;4.00;99.90;;;;;;5069873;28;20408;-82
2021/12/08 00:17:54;;;;;;;7.32;3.42;;;2.80;99.90;;;;;;5069226;28;20036;-80
2021/12/08 00:20:19;;;;;;;10.77;3.85;;;3.50;99.90;;;;;;5069966;28;20032;-81
2021/12/08 00:22:45;;;;;;;7.90;3.83;;;2.90;99.90;;;;;;5069160;28;20033;-81
2021/12/08 00:25:11;;;;;;;11.68;4.10;;;3.70;99.90;;;;;;5053443;28;20047;-81
2021/12/08 00:27:37;;;;;;;10.18;4.00;;;2.90;99.90;;;;;;5069948;28;20037;-80
2021/12/08 00:30:04;;;;;;;10.75;4.78;;;2.90;99.90;;;;;;5053103;28;20098;-82
2021/12/08 00:32:46;;;;;;;9.27;3.90;;;3.00;99.90;;;;;;5069200;28;20048;-81
2021/12/08 00:35:22;;;;;;;13.60;5.15;;;3.90;99.90;;;;;;5069282;28;20174;-82
2021/12/08 00:37:48;;;;;;;8.88;4.25;;;3.00;99.90;;;;;;5052540;28;20098;-80
2021/12/08 00:40:16;;;;;;;11.13;3.80;;;3.00;99.90;;;;;;5052732;28;20033;-80
2021/12/08 00:42:43;;;;;;;8.52;3.80;;;3.10;99.90;;;;;;5066911;28;20091;-79
2021/12/08 00:45:12;;;;;;;11.18;4.15;;;3.90;99.90;;;;;;5069075;28;20049;-79
2021/12/08 00:47:38;;;;;;;11.73;3.53;;;3.00;99.90;;;;;;5052289;28;20041;-81
2021/12/08 00:50:07;;;;;;;10.30;4.43;;;3.00;99.90;;;;;;5052587;28;20043;-81
2021/12/08 00:52:39;;;;;;;11.45;4.38;;;3.10;99.90;;;;;;5068919;28;20048;-84
2021/12/08 00:58:36;;;;;;;6.90;4.03;;;3.00;99.90;;;;;;5067418;28;20559;-79
2021/12/08 01:01:22;;;;;;;11.35;4.03;;;3.10;99.90;;;;;;5069101;28;20036;-81
2021/12/08 01:03:49;;;;;;;12.93;4.13;;;3.80;99.90;;;;;;5066997;28;20380;-79
2021/12/08 01:06:17;;;;;;;8.70;4.28;;;3.30;99.90;;;;;;5052225;28;20558;-79
2021/12/08 01:08:43;;;;;;;10.95;4.28;;;3.20;99.90;;;;;;5035428;28;20089;-85
2021/12/08 01:11:16;;;;;;;8.88;4.03;;;3.20;99.90;;;;;;5068599;28;20045;-79
2021/12/08 01:13:43;;;;;;;9.55;4.70;;;3.20;99.90;;;;;;5068317;28;20045;-79
2021/12/08 01:16:09;;;;;;;9.05;4.00;;;3.90;99.90;;;;;;5069089;28;20224;-80
2021/12/08 01:18:35;;;;;;;8.32;4.18;;;4.10;99.90;;;;;;5068768;28;20036;-80
2021/12/08 01:21:43;;;;;;;7.10;4.20;;;4.30;99.90;;;;;;5068859;28;20124;-85
2021/12/08 01:24:10;;;;;;;7.60;4.00;;;3.30;99.90;;;;;;5048259;28;20044;-79
2021/12/08 01:26:42;;;;;;;8.25;3.95;;;3.40;99.90;;;;;;5035377;28;20032;-83
2021/12/08 01:29:17;;;;;;;8.98;4.25;;;3.40;99.90;;;;;;5053306;28;20055;-85
2021/12/08 01:31:49;;;;;;;7.95;4.20;;;4.40;99.90;;;;;;5072565;28;20416;-82
2021/12/08 01:34:15;;;;;;;7.80;4.15;;;3.40;99.90;;;;;;5072430;28;20039;-79
2021/12/08 01:36:41;;;;;;;11.23;4.10;;;3.40;99.90;;;;;;5072674;28;20548;-78
2021/12/08 01:39:08;;;;;;;7.68;3.78;;;4.00;99.90;;;;;;5055451;28;20111;-78
2021/12/08 01:41:35;;;;;;;5.75;3.80;;;3.60;99.90;;;;;;5071957;28;20051;-77
2021/12/08 01:46:50;;;;;;;13.77;3.95;;;4.70;99.90;;;;;;5071441;28;20124;-78
2021/12/08 01:49:16;;;;;;;7.97;4.15;;;3.60;99.90;;;;;;5055610;28;20048;-79
2021/12/08 01:51:42;;;;;;;9.70;4.03;;;3.70;99.90;;;;;;5071978;28;20029;-77
2021/12/08 01:54:08;;;;;;;6.88;4.00;;;3.70;99.90;;;;;;5022865;28;20036;-78
2021/12/08 01:56:35;;;;;;;7.85;4.30;;;3.70;99.90;;;;;;5072354;28;20041;-80
2021/12/08 01:59:05;;;;;;;8.10;3.83;;;3.70;99.90;;;;;;5072112;28;20036;-79
2021/12/08 02:01:32;;;;;;;12.35;4.55;;;4.30;99.90;;;;;;5055086;28;20500;-79
2021/12/08 02:04:20;;;;;;;9.50;4.43;;;3.80;99.90;;;;;;5072008;28;20118;-81
2021/12/08 02:07:17;;;;;;;8.32;4.18;;;3.90;99.90;;;;;;5072223;28;20045;-82
2021/12/08 02:10:10;;;;;;;6.22;3.60;;;3.90;99.90;;;;;;5070935;28;20044;-82
2021/12/08 02:25:32;;;;;;;11.20;4.65;;;3.70;99.90;;;;;;5051290;28;20063;-79
2021/12/08 02:28:02;;;;;;;11.30;4.50;;;3.70;99.90;;;;;;5071299;28;20432;-78
2021/12/08 02:31:05;;;;;;;9.35;4.25;;;3.70;99.90;;;;;;5055748;28;20036;-78
2021/12/08 02:47:28;;;;;;;10.73;5.15;;;3.70;99.90;;;;;;5030120;28;20120;-79
2021/12/08 02:57:42;;;;;;;8.07;4.45;;;3.70;99.90;;;;;;5048597;28;20048;-81
2021/12/08 03:00:15;;;;;;;7.95;4.65;;;3.80;99.90;;;;;;5028205;28;20033;-79
2021/12/08 03:02:40;;;;;;;10.57;4.72;;;3.80;99.90;;;;;;5033755;28;20041;-79
2021/12/08 03:58:48;;;;;;;13.75;7.55;;;4.20;99.90;;;;;;5026035;28;20082;-78
2021/12/08 04:01:14;;;;;;;12.32;6.70;;;4.20;99.90;;;;;;5077423;28;20484;-78
2021/12/08 04:03:47;;;;;;;8.88;6.45;;;4.20;99.90;;;;;;5069602;28;20044;-78
2021/12/08 04:06:26;;;;;;;18.58;7.18;;;4.30;99.90;;;;;;5052271;28;20040;-78
2021/12/08 04:08:56;;;;;;;15.93;8.20;;;4.30;99.90;;;;;;5068720;28;20055;-78
2021/12/08 04:11:23;;;;;;;14.57;8.57;;;4.30;99.90;;;;;;5053265;28;20689;-79
2021/12/08 04:14:04;;;;;;;13.98;8.18;;;4.20;99.90;;;;;;5053638;28;20580;-78
2021/12/08 04:16:40;;;;;;;11.38;8.13;;;4.30;99.90;;;;;;5067197;28;20037;-82
2021/12/08 04:19:07;;;;;;;16.55;9.15;;;4.20;99.90;;;;;;5068834;28;20415;-77
2021/12/08 04:21:34;;;;;;;16.10;9.40;;;4.30;99.90;;;;;;5070116;28;20054;-77
2021/12/08 05:07:13;;;;;;;18.90;9.75;;;4.70;99.90;;;;;;5065862;28;20040;-79
2021/12/08 05:09:40;;;;;;;17.33;9.52;;;4.60;99.90;;;;;;5072663;28;20060;-79
2021/12/08 05:12:10;;;;;;;13.48;9.32;;;5.20;99.90;;;;;;5072320;28;20407;-79
2021/12/08 05:14:45;;;;;;;14.52;9.52;;;4.60;99.90;;;;;;5070363;28;20052;-80
2021/12/08 05:17:15;;;;;;;13.55;9.02;;;4.60;99.90;;;;;;5071965;28;20112;-79
2021/12/08 05:19:44;;;;;;;14.90;8.88;;;4.70;99.90;;;;;;5056129;28;20048;-79
2021/12/08 05:22:18;;;;;;;15.07;9.57;;;4.80;99.90;;;;;;5052812;28;20040;-79
2021/12/08 05:24:48;;;;;;;13.10;8.45;;;4.80;99.90;;;;;;5072661;28;20040;-79
2021/12/08 05:27:21;;;;;;;13.07;7.75;;;4.80;99.90;;;;;;5071616;28;20059;-77
2021/12/08 05:29:54;;;;;;;14.45;10.07;;;4.90;99.90;;;;;;5055644;28;20079;-77
2021/12/08 05:32:21;;;;;;;17.00;9.82;;;5.00;99.90;;;;;;5071573;28;20048;-78
2021/12/08 05:34:47;;;;;;;;;;;4.90;99.90;;;;;;5055922;28;20082;-78
2021/12/08 05:37:15;;;;;;;15.27;9.25;;;4.90;99.90;;;;;;5071789;28;19962;-77
2021/12/08 05:39:42;;;;;;;15.25;8.57;;;5.00;99.90;;;;;;5072498;28;20056;-78
2021/12/08 05:42:16;;;;;;;12.50;6.85;;;5.10;99.90;;;;;;5071913;28;20044;-79
2021/12/08 05:44:42;;;;;;;14.43;8.30;;;5.40;99.90;;;;;;5055679;28;20051;-78
2021/12/08 05:47:16;;;;;;;13.95;8.63;;;5.50;99.90;;;;;;5071967;28;20118;-78
2021/12/08 05:49:42;;;;;;;13.90;7.68;;;5.40;99.90;;;;;;5072596;28;20058;-78
2021/12/08 05:52:09;;;;;;;14.05;8.30;;;5.40;99.90;;;;;;5071691;28;20119;-78
2021/12/08 05:54:39;;;;;;;12.80;7.68;;;5.30;99.90;;;;;;5055370;28;20043;-78
2021/12/08 05:57:16;;;;;;;13.27;7.15;;;5.90;99.90;;;;;;5069917;28;20119;-78
2021/12/08 05:59:45;;;;;;;10.30;7.00;;;5.50;99.90;;;;;;5055321;28;20072;-79
2021/12/08 06:02:16;;;;;;;13.13;7.85;;;5.90;99.90;;;;;;5071153;28;20040;-78
2021/12/08 06:04:43;;;;;;;14.27;7.75;;;6.10;99.90;;;;;;5070016;28;20734;-78
2021/12/08 06:07:10;;;;;;;15.38;7.20;;;5.60;99.90;;;;;;5071042;28;20048;-78
2021/12/08 06:09:37;;;;;;;15.95;8.25;;;5.50;99.90;;;;;;5054977;28;20049;-78
2021/12/08 06:12:06;;;;;;;11.80;7.60;;;5.40;99.90;;;;;;5071659;28;20050;-78
2021/12/08 06:14:33;;;;;;;12.00;7.28;;;5.50;99.90;;;;;;5071155;28;20036;-79
2021/12/08 06:17:09;;;;;;;12.27;7.88;;;5.50;99.90;;;;;;5035799;28;20128;-78
2021/12/08 06:19:37;;;;;;;13.83;6.80;;;5.50;99.90;;;;;;5071472;28;20040;-78
2021/12/08 06:22:07;;;;;;;10.65;6.32;;;5.60;99.90;;;;;;5071322;28;20041;-78
2021/12/08 06:24:33;;;;;;;11.93;7.63;;;5.50;99.90;;;;;;5071189;28;20128;-78
2021/12/08 06:27:00;;;;;;;11.85;7.13;;;6.20;99.90;;;;;;5070958;28;20053;-78
2021/12/08 06:29:26;;;;;;;;;;;5.40;99.90;;;;;;5071343;28;20056;-78
2021/12/08 06:31:55;;;;;;;11.20;6.82;;;5.40;99.90;;;;;;5071293;28;19928;-78
2021/12/08 06:34:22;;;;;;;12.50;5.43;;;5.50;99.90;;;;;;5054115;28;20063;-78
2021/12/08 06:36:56;;;;;;;11.77;7.20;;;5.50;99.90;;;;;;5071551;28;20037;-79
2021/12/08 06:39:27;;;;;;;10.13;6.22;;;5.50;99.90;;;;;;5053996;28;20104;-78
2021/12/08 06:41:59;;;;;;;11.38;6.78;;;6.40;99.90;;;;;;5068884;28;20045;-79
2021/12/08 06:44:28;;;;;;;11.93;6.28;;;5.60;99.90;;;;;;5053935;28;20048;-78
2021/12/08 06:46:57;;;;;;;11.80;5.55;;;5.60;99.90;;;;;;5070793;28;20040;-78
2021/12/08 06:49:24;;;;;;;12.00;6.45;;;5.80;99.90;;;;;;5068154;28;20135;-78
2021/12/08 06:52:01;;;;;;;11.73;5.63;;;6.40;99.90;;;;;;5070659;28;20040;-78
2021/12/08 06:54:31;;;;;;;10.38;5.93;;;5.70;99.90;;;;;;5070420;28;20036;-78
2021/12/08 06:57:09;;;;;;;10.45;5.40;;;5.60;99.90;;;;;;5068260;28;20404;-78
2021/12/08 06:59:50;;;;;;;10.95;5.20;;;5.50;99.90;;;;;;5069879;28;20043;-79
2021/12/08 07:02:32;;;;;;;11.18;6.30;;;5.50;99.90;;;;;;5067729;28;20036;-78
2021/12/08 07:05:26;;;;;;;14.98;6.18;;;5.50;99.90;;;;;;5068844;28;20535;-78
2021/12/08 07:07:56;;;;;;;9.95;4.88;;;5.40;99.90;;;;;;5068699;28;20039;-79
2021/12/08 07:10:27;;;;;;;14.18;5.75;;;5.50;99.90;;;;;;5051648;28;20211;-78
2021/12/08 07:13:15;;;;;;;12.15;5.95;;;5.80;99.90;;;;;;5068682;28;20052;-78
2021/12/08 07:15:47;;;;;;;11.15;5.70;;;5.50;99.90;;;;;;5068649;28;20465;-78
2021/12/08 07:18:18;;;;;;;11.52;5.32;;;5.40;99.90;;;;;;5069475;28;20093;-79
2021/12/08 07:20:49;;;;;;;9.40;5.45;;;5.30;99.90;;;;;;5069723;28;20054;-78
2021/12/08 07:23:22;;;;;;;11.80;5.30;;;5.30;99.90;;;;;;5067703;28;20644;-78
2021/12/08 07:25:51;;;;;;;11.45;4.82;;;5.30;99.90;;;;;;5052902;28;20095;-78
2021/12/08 07:28:18;;;;;;;7.47;4.30;;;5.30;99.90;;;;;;5068802;28;20048;-78
2021/12/08 07:30:55;;;;;;;12.55;5.32;;;5.80;99.90;;;;;;5053089;28;20429;-78
2021/12/08 07:33:21;;;;;;;;;;;5.60;99.90;;;;;;5069876;28;20036;-77
2021/12/08 07:35:51;;;;;;;7.63;4.15;;;5.20;99.90;;;;;;5070019;28;20046;-76
2021/12/08 07:38:21;;;;;;;12.68;5.18;;;5.30;99.90;;;;;;5068901;28;20089;-76
2021/12/08 07:41:05;;;;;;;6.45;4.10;;;5.10;99.90;;;;;;5052838;28;20032;-77
2021/12/08 07:43:35;;;;;;;11.80;5.32;;;5.10;99.90;;;;;;5050499;28;20028;-77
2021/12/08 07:46:13;;;;;;;9.30;4.32;;;5.10;99.90;;;;;;5069405;28;20070;-76
2021/12/08 07:48:50;;;;;;;7.30;4.00;;;5.10;99.90;;;;;;5067129;28;20066;-76
2021/12/08 07:51:20;;;;;;;8.55;3.40;;;5.10;99.90;;;;;;5052451;28;20050;-77
2021/12/08 07:53:46;;;;;;;7.13;3.15;;;5.00;99.90;;;;;;5067138;28;20032;-76
2021/12/08 07:56:17;;;;;;;7.75;3.97;;;5.00;99.90;;;;;;5035878;28;20093;-76
2021/12/08 07:58:46;;;;;;;8.70;3.58;;;5.00;99.90;;;;;;5052217;28;20358;-76
2021/12/08 08:01:22;;;;;;;9.20;3.58;;;5.00;99.90;;;;;;5069253;28;20051;-76
2021/12/08 08:03:49;;;;;;;8.55;3.90;;;5.10;99.90;;;;;;5052399;28;20048;-76
2021/12/08 08:06:21;;;;;;;6.53;2.65;;;5.10;99.90;;;;;;5052421;28;20048;-76
2021/12/08 08:08:48;;;;;;;7.30;2.78;;;5.20;99.90;;;;;;5068826;28;20044;-76
2021/12/08 08:11:19;;;;;;;6.40;2.80;;;5.20;99.90;;;;;;5068455;28;20040;-77
2021/12/08 08:13:45;;;;;;;10.95;3.20;;;5.20;99.90;;;;;;5068619;28;20163;-76
2021/12/08 08:16:15;;;;;;;4.82;2.15;;;5.30;99.90;;;;;;5068991;28;20036;-77
2021/12/08 08:18:47;;;;;;;3.58;2.20;;;5.30;99.90;;;;;;5052780;28;20036;-80
2021/12/08 08:21:18;;;;;;;6.30;2.80;;;5.30;99.90;;;;;;5069843;28;20124;-80
2021/12/08 08:23:45;;;;;;;6.80;3.00;;;6.00;99.90;;;;;;5067896;28;20424;-80
2021/12/08 08:26:12;;;;;;;;;;;5.40;99.90;;;;;;5053620;28;20373;-81
2021/12/08 08:28:39;;;;;;;7.30;3.10;;;5.30;99.90;;;;;;5052572;28;19916;-81
2021/12/08 08:31:12;;;;;;;8.25;2.85;;;5.80;99.90;;;;;;5069461;28;20044;-81
2021/12/08 08:33:40;;;;;;;6.88;3.50;;;5.70;99.90;;;;;;5052666;28;20076;-80
2021/12/08 08:36:13;;;;;;;9.50;3.10;;;5.80;99.90;;;;;;5050386;28;20124;-81
2021/12/08 08:39:26;;;;;;;7.80;2.88;;;6.40;99.90;;;;;;5052908;28;20045;-81
2021/12/08 08:42:00;;;;;;;7.28;2.72;;;5.80;99.90;;;;;;5002363;28;20041;-81
2021/12/08 08:44:41;;;;;;;5.82;3.03;;;5.60;99.90;;;;;;5088095;28;20041;-80
2021/12/08 08:47:12;;;;;;;6.50;2.50;;;5.50;99.90;;;;;;5076090;28;20493;-81
2021/12/08 08:49:39;;;;;;;6.55;2.42;;;6.80;99.90;;;;;;5076111;28;20044;-80
2021/12/08 08:52:35;;;;;;;7.97;2.38;;;5.70;99.90;;;;;;5041665;28;20459;-81
2021/12/08 08:55:10;;;;;;;8.55;2.72;;;5.70;99.90;;;;;;5074885;28;20040;-80
2021/12/08 08:57:38;;;;;;;6.78;2.53;;;5.70;99.90;;;;;;5073588;28;20076;-81
2021/12/08 09:00:10;;;;;;;8.02;2.25;;;6.00;99.90;;;;;;5059079;28;20074;-79
2021/12/08 09:02:39;;;;;;;4.93;1.83;;;6.20;99.90;;;;;;5075623;28;20044;-81
2021/12/08 09:05:21;;;;;;;3.63;1.80;;;6.50;99.90;;;;;;5042652;28;20123;-81
2021/12/08 09:07:51;;;;;;;8.18;2.17;;;6.80;99.90;;;;;;5058726;28;20115;-79
2021/12/08 09:10:38;;;;;;;9.75;2.13;;;6.70;99.90;;;;;;5075898;28;20118;-78
2021/12/08 09:13:31;;;;;;;7.05;2.15;;;6.80;99.90;;;;;;5059502;28;20064;-81
2021/12/08 09:16:05;;;;;;;3.88;1.83;;;7.20;99.90;;;;;;5058766;28;20090;-81
2021/12/08 09:18:49;;;;;;;8.18;2.13;;;6.50;99.90;;;;;;5058767;28;20531;-77
2021/12/08 09:21:21;;;;;;;6.38;1.52;;;6.40;99.90;;;;;;5075105;28;20043;-77
2021/12/08 09:24:03;;;;;;;10.00;2.00;;;6.30;99.90;;;;;;5074686;28;20500;-78
2021/12/08 09:26:31;;;;;;;4.60;1.63;;;6.50;99.90;;;;;;5057560;28;20543;-77
2021/12/08 09:29:11;;;;;;;7.00;1.95;;;6.00;99.90;;;;;;5075131;28;20076;-77
2021/12/08 09:31:54;;;;;;;7.55;2.55;;;6.10;99.90;;;;;;5057476;28;20114;-78
2021/12/08 09:34:24;;;;;;;6.55;1.92;;;5.90;99.90;;;;;;5074367;28;20055;-78
2021/12/08 09:37:04;;;;;;;10.30;2.10;;;5.90;99.90;;;;;;5072714;28;20476;-77
2021/12/08 09:39:39;;;;;;;8.43;2.03;;;5.90;99.90;;;;;;5072914;28;20625;-78
2021/12/08 09:42:39;;;;;;;9.13;2.22;;;5.80;99.90;;;;;;5075078;28;20044;-78
2021/12/08 09:45:21;;;;;;;7.65;2.50;;;5.90;99.90;;;;;;5072818;28;20178;-78
2021/12/08 09:47:47;;;;;;;9.65;2.08;;;5.90;99.90;;;;;;5058076;28;20481;-77
2021/12/08 09:50:14;;;;;;;9.45;2.47;;;5.90;99.90;;;;;;5074639;28;20033;-78
2021/12/08 09:52:43;;;;;;;9.45;2.08;;;6.00;99.90;;;;;;5070986;28;20048;-78
2021/12/08 09:55:10;;;;;;;7.88;1.95;;;6.10;99.90;;;;;;5071500;28;20473;-78
2021/12/08 09:57:36;;;;;;;4.63;1.80;;;6.60;99.90;;;;;;5071260;28;20111;-78
2021/12/08 10:00:06;;;;;;;9.55;1.70;;;7.20;99.90;;;;;;5055031;28;20040;-78
2021/12/08 10:02:34;;;;;;;7.43;1.73;;;7.90;99.90;;;;;;5071630;28;20036;-78
2021/12/08 10:05:07;;;;;;;9.43;1.65;;;8.20;99.90;;;;;;5036331;28;20387;-78
2021/12/08 10:07:33;;;;;;;5.78;1.65;;;8.30;99.90;;;;;;5071320;28;20048;-78
2021/12/08 10:09:59;;;;;;;6.38;2.03;;;8.10;99.90;;;;;;5037762;28;20071;-78
2021/12/08 10:12:24;;;;;;;11.05;2.30;;;7.90;99.90;;;;;;5071532;28;20040;-78
2021/12/08 10:14:50;;;;;;;6.95;1.75;;;8.00;99.90;;;;;;5071318;28;20108;-78
2021/12/08 10:17:19;;;;;;;6.05;1.52;;;8.20;99.90;;;;;;5071122;28;20041;-78
2021/12/08 10:19:46;;;;;;;4.47;1.95;;;8.70;99.90;;;;;;5070784;28;20119;-78
2021/12/08 10:22:18;;;;;;;7.90;1.95;;;8.40;99.90;;;;;;5071128;28;20094;-78
2021/12/08 10:25:14;;;;;;;6.20;1.77;;;8.40;99.90;;;;;;5070545;28;20040;-78
2021/12/08 10:28:13;;;;;;;5.88;1.73;;;8.60;99.90;;;;;;5051122;28;20061;-78
2021/12/08 10:30:55;;;;;;;7.28;2.53;;;9.50;99.90;;;;;;5067629;28;20404;-78
2021/12/08 10:39:08;;;;;;;7.72;1.85;;;10.50;99.90;;;;;;5067358;28;20033;-77
2021/12/08 10:42:01;;;;;;;5.00;1.40;;;10.50;99.90;;;;;;5070627;28;20044;-77
2021/12/08 10:44:39;;;;;;;6.30;1.50;;;11.00;99.90;;;;;;5069176;28;20403;-77
2021/12/08 10:47:07;;;;;;;6.55;1.50;;;11.30;99.90;;;;;;5070598;28;20377;-77
2021/12/08 10:54:49;;;;;;;5.63;1.30;;;10.80;99.90;;;;;;5069714;28;20128;-79
2021/12/08 10:57:21;;;;;;;6.05;1.55;;;10.80;99.90;;;;;;5071340;28;20491;-79
2021/12/08 10:59:57;;;;;;;7.03;1.83;;;11.00;99.90;;;;;;5070795;28;20473;-79
2021/12/08 11:02:57;;;;;;;6.20;1.65;;;10.60;99.90;;;;;;5071074;28;20041;-79
2021/12/08 11:05:25;;;;;;;8.07;1.73;;;10.20;99.90;;;;;;5049198;28;20056;-79
2021/12/08 11:08:04;;;;;;;6.35;1.80;;;10.00;99.90;;;;;;5070558;28;20037;-79
2021/12/08 11:10:37;;;;;;;11.05;1.88;;;10.50;99.90;;;;;;5053053;28;20040;-79
2021/12/08 11:13:03;;;;;;;5.28;1.60;;;10.10;99.90;;;;;;5068079;28;20041;-78
2021/12/08 11:15:31;;;;;;;7.82;1.85;;;10.30;99.90;;;;;;5070346;28;20052;-78
2021/12/08 11:18:21;;;;;;;6.35;1.40;;;11.10;99.90;;;;;;5053441;28;20040;-79
2021/12/08 11:20:51;;;;;;;6.30;1.73;;;11.30;99.90;;;;;;5069961;28;20097;-79
2021/12/08 11:23:40;;;;;;;7.47;1.80;;;11.10;99.90;;;;;;5070510;28;20668;-79
2021/12/08 11:26:27;;;;;;;6.70;1.83;;;11.00;99.90;;;;;;5069731;28;20048;-79
2021/12/08 11:29:05;;;;;;;4.95;1.38;;;10.20;99.90;;;;;;5067402;28;20055;-78
2021/12/08 11:31:36;;;;;;;2.97;1.35;;;9.60;99.90;;;;;;5068903;28;20044;-78
2021/12/08 11:34:05;;;;;;;7.35;1.88;;;9.20;99.90;;;;;;5067228;28;20043;-79
2021/12/08 11:36:35;;;;;;;6.65;1.95;;;8.80;99.90;;;;;;5102678;28;20036;-79
2021/12/08 11:39:07;;;;;;;4.95;1.52;;;8.60;99.90;;;;;;5069674;28;20089;-80
2021/12/08 11:41:40;;;;;;;10.15;2.03;;;8.40;99.90;;;;;;5068195;28;20443;-77
2021/12/08 11:44:14;;;;;;;4.88;1.70;;;8.40;99.90;;;;;;5069321;28;20036;-78
2021/12/08 11:46:45;;;;;;;6.18;1.63;;;8.20;99.90;;;;;;5062951;28;20075;-78
2021/12/08 11:49:11;;;;;;;4.63;1.73;;;8.20;99.90;;;;;;5052899;28;20540;-78
2021/12/08 11:51:43;;;;;;;7.57;2.25;;;8.20;99.90;;;;;;5069671;28;20468;-77
2021/12/08 11:54:27;;;;;;;4.32;1.38;;;8.10;99.90;;;;;;5066737;28;20048;-77
2021/12/08 11:57:11;;;;;;;4.53;1.58;;;8.10;99.90;;;;;;5069413;28;20346;-78
2021/12/08 11:59:48;;;;;;;7.85;1.63;;;8.10;99.90;;;;;;5050841;28;20041;-79
2021/12/08 12:02:15;;;;;;;6.55;1.55;;;8.00;99.90;;;;;;5068852;28;20128;-78
2021/12/08 12:04:45;;;;;;;4.57;1.80;;;7.90;99.90;;;;;;5069869;28;20095;-79
2021/12/08 12:07:12;;;;;;;6.35;1.55;;;7.80;99.90;;;;;;5067352;28;20127;-79
2021/12/08 12:09:39;;;;;;;3.80;1.58;;;7.60;99.90;;;;;;5069628;28;20045;-79
2021/12/08 12:12:06;;;;;;;4.40;1.90;;;7.60;99.90;;;;;;5069071;28;20080;-79
2021/12/08 12:14:32;;;;;;;6.55;2.17;;;7.60;99.90;;;;;;5069178;28;20040;-79
2021/12/08 12:16:58;;;;;;;8.07;1.77;;;7.50;99.90;;;;;;5069249;28;20062;-78
2021/12/08 12:19:27;;;;;;;3.63;1.95;;;7.50;99.90;;;;;;5053018;28;20037;-79
2021/12/08 12:22:23;;;;;;;7.50;2.00;;;7.40;99.90;;;;;;5069695;28;20040;-78
2021/12/08 12:25:00;;;;;;;;;;;7.50;99.90;;;;;;5053994;28;20496;-78
2021/12/08 12:27:46;;;;;;;4.45;1.70;;;7.40;99.90;;;;;;5068470;28;19920;-80
2021/12/08 12:30:55;;;;;;;7.80;2.17;;;7.50;99.90;;;;;;5069519;28;20072;-79
2021/12/08 12:33:23;;;;;;;6.70;1.60;;;7.50;99.90;;;;;;5067165;28;20044;-79
2021/12/08 12:35:55;;;;;;;6.50;2.30;;;7.50;99.90;;;;;;5053124;28;20075;-79
2021/12/08 12:38:38;;;;;;;7.63;2.58;;;7.40;99.90;;;;;;5052939;28;20045;-79
2021/12/08 12:41:07;;;;;;;4.68;2.00;;;7.30;99.90;;;;;;5065797;28;20036;-79
2021/12/08 12:43:38;;;;;;;5.32;1.92;;;7.30;99.90;;;;;;5069711;28;20056;-79
2021/12/08 12:46:13;;;;;;;6.45;2.60;;;7.20;99.90;;;;;;5068917;28;20044;-79
2021/12/08 12:48:40;;;;;;;7.28;2.30;;;7.20;99.90;;;;;;5069872;28;20055;-80
2021/12/08 12:51:08;;;;;;;4.80;2.38;;;7.20;99.90;;;;;;5066991;28;20550;-79
2021/12/08 12:53:46;;;;;;;9.52;2.42;;;7.30;99.90;;;;;;5069665;28;20043;-80
2021/12/08 12:56:35;;;;;;;8.15;2.65;;;7.10;99.90;;;;;;5052161;28;20099;-79
2021/12/08 12:59:15;;;;;;;7.90;2.40;;;7.10;99.90;;;;;;5042998;28;20044;-79
2021/12/08 13:01:47;;;;;;;6.50;2.25;;;7.10;99.90;;;;;;5069917;28;20624;-79
2021/12/08 13:04:20;;;;;;;5.32;2.45;;;7.10;99.90;;;;;;5069430;28;20471;-80
2021/12/08 13:06:56;;;;;;;4.97;2.10;;;7.10;99.90;;;;;;5052830;28;20048;-80
2021/12/08 13:09:53;;;;;;;7.57;2.30;;;7.00;99.90;;;;;;5067597;28;20044;-79
2021/12/08 13:12:26;;;;;;;7.15;2.90;;;7.10;99.90;;;;;;5067204;28;20329;-79
2021/12/08 13:15:19;;;;;;;10.85;2.22;;;7.00;99.90;;;;;;5069490;28;20041;-80
2021/12/08 13:18:05;;;;;;;7.57;2.30;;;7.10;99.90;;;;;;5047468;28;20029;-79
2021/12/08 13:20:46;;;;;;;6.97;2.03;;;7.00;99.90;;;;;;5067145;28;20045;-79
2021/12/08 13:23:15;;;;;;;8.15;2.40;;;7.10;99.90;;;;;;5068861;28;20503;-78
2021/12/08 13:26:00;;;;;;;6.28;2.17;;;7.50;99.90;;;;;;5070047;28;20079;-79
2021/12/08 13:28:38;;;;;;;6.45;2.13;;;7.00;99.90;;;;;;5053655;28;20114;-79
2021/12/08 13:31:25;;;;;;;4.45;1.92;;;7.00;99.90;;;;;;5071943;28;20052;-79
2021/12/08 13:33:51;;;;;;;5.57;2.10;;;7.10;99.90;;;;;;5070626;28;20042;-79
2021/12/08 13:36:19;;;;;;;6.10;2.30;;;7.10;99.90;;;;;;5072358;28;20461;-80
2021/12/08 13:39:03;;;;;;;6.05;2.33;;;7.10;99.90;;;;;;5056008;28;20052;-80
2021/12/08 13:41:32;;;;;;;9.40;2.42;;;6.90;99.90;;;;;;5071718;28;20044;-80
2021/12/08 13:44:25;;;;;;;6.65;2.20;;;6.90;99.90;;;;;;5073162;28;20526;-79
2021/12/08 13:46:56;;;;;;;7.63;2.42;;;6.80;99.90;;;;;;5071489;28;20044;-82
2021/12/08 13:49:26;;;;;;;5.13;2.30;;;7.00;99.90;;;;;;5073076;28;20044;-82
2021/12/08 13:52:12;;;;;;;7.43;1.90;;;6.90;99.90;;;;;;5070535;28;20037;-81
2021/12/08 13:54:43;;;;;;;6.53;2.40;;;6.90;99.90;;;;;;5064879;28;20045;-79
2021/12/08 13:57:27;;;;;;;6.10;2.25;;;6.90;99.90;;;;;;5072092;28;20124;-80
2021/12/08 13:59:58;;;;;;;5.20;2.00;;;7.00;99.90;;;;;;5072647;28;20044;-79
2021/12/08 14:02:32;;;;;;;6.28;2.10;;;6.90;99.90;;;;;;5086549;28;20058;-80
2021/12/08 14:05:08;;;;;;;3.72;1.60;;;7.00;99.90;;;;;;5072480;28;20404;-80
2021/12/08 14:07:37;;;;;;;5.70;2.20;;;6.90;99.90;;;;;;5104457;28;20050;-80
2021/12/08 14:10:07;;;;;;;3.72;2.20;;;6.80;99.90;;;;;;5072277;28;20630;-80
2021/12/08 14:12:40;;;;;;;5.15;1.80;;;6.80;99.90;;;;;;5055363;28;20123;-78
2021/12/08 14:15:08;;;;;;;6.18;2.15;;;6.80;99.90;;;;;;5069639;28;20037;-79
2021/12/08 14:17:33;;;;;;;5.38;2.10;;;6.80;99.90;;;;;;5055211;28;20047;-78
2021/12/08 14:19:59;;;;;;;4.10;1.90;;;6.60;99.90;;;;;;5072289;28;20042;-78
2021/12/08 14:22:39;;;;;;;7.97;2.43;;;6.70;99.90;;;;;;5071277;28;20098;-80
2021/12/08 14:25:06;;;;;;;8.05;2.20;;;6.80;99.90;;;;;;5053513;28;20697;-79
2021/12/08 14:27:33;;;;;;;8.02;2.17;;;6.70;99.90;;;;;;5072121;28;20518;-80
2021/12/08 14:29:59;;;;;;;;;;;6.70;99.90;;;;;;5072460;28;20041;-80
2021/12/08 14:32:25;;;;;;;8.32;1.85;;;6.70;99.90;;;;;;5071480;28;20339;-80
2021/12/08 14:34:52;;;;;;;4.28;2.20;;;6.70;99.90;;;;;;5069686;28;20029;-80
2021/12/08 14:37:19;;;;;;;5.32;1.92;;;6.70;99.90;;;;;;5053873;28;20473;-80
2021/12/08 14:39:49;;;;;;;9.52;2.05;;;6.50;99.90;;;;;;5071834;28;20068;-81
2021/12/08 14:42:30;;;;;;;6.85;2.28;;;6.50;99.90;;;;;;5054658;28;20032;-80
2021/12/08 14:45:05;;;;;;;6.05;2.05;;;6.40;99.90;;;;;;5072460;28;20036;-80
2021/12/08 14:47:35;;;;;;;6.05;1.90;;;6.50;99.90;;;;;;5069557;28;20040;-80
2021/12/08 14:50:06;;;;;;;5.32;2.33;;;6.50;99.90;;;;;;5071567;28;20049;-79
2021/12/08 14:52:34;;;;;;;6.03;1.85;;;6.50;99.90;;;;;;5071010;28;20048;-80
2021/12/08 14:55:01;;;;;;;6.10;1.98;;;6.40;99.90;;;;;;5055512;28;20043;-81
2021/12/08 14:57:28;;;;;;;5.85;2.22;;;6.30;99.90;;;;;;5070978;28;20075;-79
2021/12/08 15:00:18;;;;;;;5.90;2.00;;;7.00;99.90;;;;;;5054727;28;20377;-79
2021/12/08 15:03:08;;;;;;;6.80;2.38;;;6.30;99.90;;;;;;5071121;28;20044;-79
2021/12/08 15:05:36;;;;;;;5.47;2.17;;;6.20;99.90;;;;;;5047774;28;20076;-80
2021/12/08 15:08:10;;;;;;;4.93;2.10;;;6.10;99.90;;;;;;5071539;28;20041;-80
2021/12/08 15:10:37;;;;;;;7.05;2.10;;;6.00;99.90;;;;;;5068475;28;20040;-80
2021/12/08 15:13:25;;;;;;;4.57;1.77;;;6.00;99.90;;;;;;5071233;28;20043;-80
2021/12/08 15:15:56;;;;;;;6.55;1.90;;;5.90;99.90;;;;;;5103627;28;20108;-80
2021/12/08 15:18:24;;;;;;;4.55;2.03;;;5.80;99.90;;;;;;5053817;28;20033;-80
2021/12/08 15:20:59;;;;;;;8.02;2.05;;;5.80;99.90;;;;;;5071609;28;20438;-80
2021/12/08 15:23:40;;;;;;;11.63;2.42;;;5.70;99.90;;;;;;5069051;28;20097;-80
2021/12/08 15:26:08;;;;;;;6.55;2.33;;;5.70;99.90;;;;;;5054436;28;20109;-80
2021/12/08 15:28:35;;;;;;;6.57;2.00;;;5.60;99.90;;;;;;5070212;28;20064;-80
2021/12/08 15:31:03;;;;;;;6.32;2.08;;;5.60;99.90;;;;;;5054089;28;20067;-80
2021/12/08 15:33:30;;;;;;;8.80;2.00;;;5.70;99.90;;;;;;5069841;28;20049;-80
2021/12/08 15:36:09;;;;;;;7.68;2.20;;;5.70;99.90;;;;;;5068012;28;20045;-83
2021/12/08 15:38:37;;;;;;;9.20;2.53;;;5.60;99.90;;;;;;5070639;28;20044;-81
2021/12/08 15:41:09;;;;;;;6.45;2.20;;;5.50;99.90;;;;;;5054083;28;20109;-81
2021/12/08 15:43:35;;;;;;;7.50;2.05;;;5.40;99.90;;;;;;5070355;28;20051;-81
2021/12/08 15:46:01;;;;;;;6.75;2.67;;;5.40;99.90;;;;;;5053810;28;20033;-80
2021/12/08 15:48:30;;;;;;;8.63;2.47;;;5.30;99.90;;;;;;5069695;28;20484;-80
2021/12/08 15:51:03;;;;;;;3.63;2.20;;;5.40;99.90;;;;;;5070190;28;20316;-80
2021/12/08 15:53:32;;;;;;;5.85;2.00;;;5.40;99.90;;;;;;5050775;28;20047;-80
2021/12/08 15:56:06;;;;;;;5.95;2.00;;;5.30;99.90;;;;;;5070631;28;20040;-80
2021/12/08 15:58:47;;;;;;;8.02;2.28;;;5.30;99.90;;;;;;5053091;28;20033;-81